sensor_id;sensor_type;location;lat;lon;timestamp;P1;durP1;ratioP1;P2;durP2;ratioP2
42884;SDS011;28534;48.100;11.584;2023-02-13T00:03:03;2.58;;;1.95;;
42884;SDS011;28534;48.100;11.584;2023-02-13T00:08:05;3.72;;;2.20;;
42884;SDS011;28534;48.100;11.584;2023-02-13T00:13:07;3.35;;;2.25;;
42884;SDS011;28534;48.100;11.584;2023-02-13T00:18:10;2.92;;;2.20;;
42884;SDS011;28534;48.100;11.584;2023-02-13T00:23:12;3.92;;;2.20;;
42884;SDS011;28534;48.100;11.584;2023-02-13T00:28:14;3.40;;;2.13;;
42884;SDS011;28534;48.100;11.584;2023-02-13T00:33:17;2.47;;;2.00;;
42884;SDS011;28534;48.100;11.584;2023-02-13T00:38:18;3.03;;;2.10;;
42884;SDS011;28534;48.100;11.584;2023-02-13T00:43:20;3.15;;;2.30;;
42884;SDS011;28534;48.100;11.584;2023-02-13T00:48:23;2.58;;;2.30;;
42884;SDS011;28534;48.100;11.584;2023-02-13T00:53:26;3.55;;;2.10;;
42884;SDS011;28534;48.100;11.584;2023-02-13T00:58:28;3.08;;;2.10;;
42884;SDS011;28534;48.100;11.584;2023-02-13T01:03:31;3.55;;;1.98;;
42884;SDS011;28534;48.100;11.584;2023-02-13T01:08:33;2.17;;;1.98;;
42884;SDS011;28534;48.100;11.584;2023-02-13T01:13:35;2.80;;;2.20;;
42884;SDS011;28534;48.100;11.584;2023-02-13T01:18:38;2.83;;;2.08;;
42884;SDS011;28534;48.100;11.584;2023-02-13T01:23:40;2.30;;;1.92;;
42884;SDS011;28534;48.100;11.584;2023-02-13T01:28:42;2.10;;;1.90;;
42884;SDS011;28534;48.100;11.584;2023-02-13T01:33:45;2.97;;;2.08;;
42884;SDS011;28534;48.100;11.584;2023-02-13T01:38:47;2.63;;;2.22;;
42884;SDS011;28534;48.100;11.584;2023-02-13T01:43:50;3.13;;;2.08;;
42884;SDS011;28534;48.100;11.584;2023-02-13T01:48:56;2.72;;;2.10;;
42884;SDS011;28534;48.100;11.584;2023-02-13T01:54:02;2.47;;;2.05;;
42884;SDS011;28534;48.100;11.584;2023-02-13T01:59:07;2.47;;;2.10;;
42884;SDS011;28534;48.100;11.584;2023-02-13T02:04:14;2.92;;;2.20;;
42884;SDS011;28534;48.100;11.584;2023-02-13T02:09:18;2.75;;;2.13;;
42884;SDS011;28534;48.100;11.584;2023-02-13T02:14:23;2.95;;;1.90;;
42884;SDS011;28534;48.100;11.584;2023-02-13T02:19:31;3.20;;;1.80;;
42884;SDS011;28534;48.100;11.584;2023-02-13T02:30:29;2.10;;;1.90;;
42884;SDS011;28534;48.100;11.584;2023-02-13T02:35:49;2.75;;;2.17;;
42884;SDS011;28534;48.100;11.584;2023-02-13T02:41:03;2.20;;;2.00;;
42884;SDS011;28534;48.100;11.584;2023-02-13T02:46:12;2.95;;;2.17;;
42884;SDS011;28534;48.100;11.584;2023-02-13T02:51:22;2.17;;;1.98;;
42884;SDS011;28534;48.100;11.584;2023-02-13T02:56:29;2.25;;;2.00;;
42884;SDS011;28534;48.100;11.584;2023-02-13T03:01:38;2.10;;;1.88;;
42884;SDS011;28534;48.100;11.584;2023-02-13T03:07:00;2.75;;;2.08;;
42884;SDS011;28534;48.100;11.584;2023-02-13T03:12:06;2.35;;;2.00;;
42884;SDS011;28534;48.100;11.584;2023-02-13T03:17:27;3.20;;;2.00;;
42884;SDS011;28534;48.100;11.584;2023-02-13T03:22:52;1.98;;;1.77;;
42884;SDS011;28534;48.100;11.584;2023-02-13T03:28:05;3.15;;;2.10;;
42884;SDS011;28534;48.100;11.584;2023-02-13T03:33:43;2.72;;;1.90;;
42884;SDS011;28534;48.100;11.584;2023-02-13T03:38:58;2.45;;;2.10;;
42884;SDS011;28534;48.100;11.584;2023-02-13T03:44:09;2.72;;;1.88;;
42884;SDS011;28534;48.100;11.584;2023-02-13T03:49:17;2.20;;;2.00;;
42884;SDS011;28534;48.100;11.584;2023-02-13T03:54:41;2.10;;;1.90;;
42884;SDS011;28534;48.100;11.584;2023-02-13T04:00:07;2.38;;;2.03;;
42884;SDS011;28534;48.100;11.584;2023-02-13T04:05:12;3.45;;;1.80;;
42884;SDS011;28534;48.100;11.584;2023-02-13T04:10:18;2.35;;;2.15;;
42884;SDS011;28534;48.100;11.584;2023-02-13T04:15:23;2.42;;;1.80;;
42884;SDS011;28534;48.100;11.584;2023-02-13T04:20:29;2.40;;;2.00;;
42884;SDS011;28534;48.100;11.584;2023-02-13T04:25:33;2.10;;;1.90;;
42884;SDS011;28534;48.100;11.584;2023-02-13T04:30:37;2.30;;;1.90;;
42884;SDS011;28534;48.100;11.584;2023-02-13T04:35:39;2.22;;;1.77;;
42884;SDS011;28534;48.100;11.584;2023-02-13T04:40:42;2.28;;;1.90;;
42884;SDS011;28534;48.100;11.584;2023-02-13T04:45:46;2.78;;;1.90;;
42884;SDS011;28534;48.100;11.584;2023-02-13T04:50:48;2.38;;;1.73;;
42884;SDS011;28534;48.100;11.584;2023-02-13T04:55:52;2.00;;;1.73;;
42884;SDS011;28534;48.100;11.584;2023-02-13T05:00:54;2.95;;;1.85;;
42884;SDS011;28534;48.100;11.584;2023-02-13T05:05:56;4.22;;;1.77;;
42884;SDS011;28534;48.100;11.584;2023-02-13T05:10:59;2.90;;;1.85;;
42884;SDS011;28534;48.100;11.584;2023-02-13T05:16:01;4.20;;;2.20;;
42884;SDS011;28534;48.100;11.584;2023-02-13T05:21:02;6.53;;;2.17;;
42884;SDS011;28534;48.100;11.584;2023-02-13T05:26:20;5.03;;;2.28;;
42884;SDS011;28534;48.100;11.584;2023-02-13T05:31:21;4.30;;;1.83;;
42884;SDS011;28534;48.100;11.584;2023-02-13T05:36:23;6.30;;;2.50;;
42884;SDS011;28534;48.100;11.584;2023-02-13T05:41:26;8.90;;;2.78;;
42884;SDS011;28534;48.100;11.584;2023-02-13T05:46:28;15.00;;;2.97;;
42884;SDS011;28534;48.100;11.584;2023-02-13T05:51:30;9.98;;;2.65;;
42884;SDS011;28534;48.100;11.584;2023-02-13T05:56:33;9.90;;;2.95;;
42884;SDS011;28534;48.100;11.584;2023-02-13T06:01:35;12.30;;;3.08;;
42884;SDS011;28534;48.100;11.584;2023-02-13T06:06:37;10.55;;;3.25;;
42884;SDS011;28534;48.100;11.584;2023-02-13T06:11:40;12.05;;;3.20;;
42884;SDS011;28534;48.100;11.584;2023-02-13T06:16:43;11.10;;;4.95;;
42884;SDS011;28534;48.100;11.584;2023-02-13T06:21:44;10.02;;;4.20;;
42884;SDS011;28534;48.100;11.584;2023-02-13T06:26:48;12.32;;;4.65;;
42884;SDS011;28534;48.100;11.584;2023-02-13T06:31:49;6.22;;;2.92;;
42884;SDS011;28534;48.100;11.584;2023-02-13T06:36:51;5.97;;;2.78;;
42884;SDS011;28534;48.100;11.584;2023-02-13T06:41:54;7.38;;;2.83;;
42884;SDS011;28534;48.100;11.584;2023-02-13T06:46:56;9.73;;;3.00;;
42884;SDS011;28534;48.100;11.584;2023-02-13T06:51:57;6.78;;;2.78;;
42884;SDS011;28534;48.100;11.584;2023-02-13T06:57:01;8.30;;;2.80;;
42884;SDS011;28534;48.100;11.584;2023-02-13T07:02:02;14.95;;;3.10;;
42884;SDS011;28534;48.100;11.584;2023-02-13T07:07:04;13.40;;;3.10;;
42884;SDS011;28534;48.100;11.584;2023-02-13T07:12:07;9.15;;;2.70;;
42884;SDS011;28534;48.100;11.584;2023-02-13T07:17:09;11.38;;;2.67;;
42884;SDS011;28534;48.100;11.584;2023-02-13T07:22:11;12.68;;;3.08;;
42884;SDS011;28534;48.100;11.584;2023-02-13T07:27:14;13.35;;;3.00;;
42884;SDS011;28534;48.100;11.584;2023-02-13T07:32:16;12.60;;;3.08;;
42884;SDS011;28534;48.100;11.584;2023-02-13T07:37:18;9.65;;;2.92;;
42884;SDS011;28534;48.100;11.584;2023-02-13T07:42:21;11.50;;;2.63;;
42884;SDS011;28534;48.100;11.584;2023-02-13T07:47:23;11.75;;;2.63;;
42884;SDS011;28534;48.100;11.584;2023-02-13T07:52:24;17.67;;;3.13;;
42884;SDS011;28534;48.100;11.584;2023-02-13T07:57:27;8.05;;;2.88;;
42884;SDS011;28534;48.100;11.584;2023-02-13T08:02:30;14.25;;;2.80;;
42884;SDS011;28534;48.100;11.584;2023-02-13T08:07:32;7.80;;;2.72;;
42884;SDS011;28534;48.100;11.584;2023-02-13T08:12:36;10.43;;;3.05;;
42884;SDS011;28534;48.100;11.584;2023-02-13T08:17:38;10.45;;;3.10;;
42884;SDS011;28534;48.100;11.584;2023-02-13T08:22:39;6.53;;;2.65;;
42884;SDS011;28534;48.100;11.584;2023-02-13T08:27:42;8.25;;;2.60;;
42884;SDS011;28534;48.100;11.584;2023-02-13T08:32:44;6.45;;;2.40;;
42884;SDS011;28534;48.100;11.584;2023-02-13T08:37:46;11.77;;;3.00;;
42884;SDS011;28534;48.100;11.584;2023-02-13T08:42:49;7.68;;;2.53;;
42884;SDS011;28534;48.100;11.584;2023-02-13T08:47:54;6.88;;;2.60;;
42884;SDS011;28534;48.100;11.584;2023-02-13T08:52:56;10.82;;;2.50;;
42884;SDS011;28534;48.100;11.584;2023-02-13T08:58:00;8.38;;;2.40;;
42884;SDS011;28534;48.100;11.584;2023-02-13T09:03:02;9.10;;;2.55;;
42884;SDS011;28534;48.100;11.584;2023-02-13T09:08:05;6.80;;;2.58;;
42884;SDS011;28534;48.100;11.584;2023-02-13T09:13:08;6.78;;;2.65;;
42884;SDS011;28534;48.100;11.584;2023-02-13T09:18:10;10.20;;;2.65;;
42884;SDS011;28534;48.100;11.584;2023-02-13T09:23:12;7.93;;;2.30;;
42884;SDS011;28534;48.100;11.584;2023-02-13T09:28:15;6.28;;;2.42;;
42884;SDS011;28534;48.100;11.584;2023-02-13T09:33:17;6.03;;;2.38;;
42884;SDS011;28534;48.100;11.584;2023-02-13T09:38:19;8.88;;;2.53;;
42884;SDS011;28534;48.100;11.584;2023-02-13T09:43:25;12.85;;;2.42;;
42884;SDS011;28534;48.100;11.584;2023-02-13T09:48:31;8.35;;;2.40;;
42884;SDS011;28534;48.100;11.584;2023-02-13T09:53:34;6.05;;;2.50;;
42884;SDS011;28534;48.100;11.584;2023-02-13T09:58:40;8.75;;;1.90;;
42884;SDS011;28534;48.100;11.584;2023-02-13T10:03:45;7.97;;;2.15;;
42884;SDS011;28534;48.100;11.584;2023-02-13T10:08:57;6.75;;;2.22;;
42884;SDS011;28534;48.100;11.584;2023-02-13T10:14:14;5.47;;;2.25;;
42884;SDS011;28534;48.100;11.584;2023-02-13T10:19:23;12.80;;;4.22;;
42884;SDS011;28534;48.100;11.584;2023-02-13T10:24:35;32.10;;;16.15;;
42884;SDS011;28534;48.100;11.584;2023-02-13T10:29:42;37.15;;;20.80;;
42884;SDS011;28534;48.100;11.584;2023-02-13T10:35:10;24.92;;;13.43;;
42884;SDS011;28534;48.100;11.584;2023-02-13T10:40:23;29.08;;;15.07;;
42884;SDS011;28534;48.100;11.584;2023-02-13T10:45:41;25.83;;;13.57;;
42884;SDS011;28534;48.100;11.584;2023-02-13T10:50:52;22.50;;;12.65;;
42884;SDS011;28534;48.100;11.584;2023-02-13T11:01:30;21.45;;;11.70;;
42884;SDS011;28534;48.100;11.584;2023-02-13T11:06:36;21.63;;;11.88;;
42884;SDS011;28534;48.100;11.584;2023-02-13T11:11:41;22.23;;;11.68;;
42884;SDS011;28534;48.100;11.584;2023-02-13T11:16:49;21.77;;;11.05;;
42884;SDS011;28534;48.100;11.584;2023-02-13T11:21:55;22.67;;;10.30;;
42884;SDS011;28534;48.100;11.584;2023-02-13T11:27:00;19.77;;;9.77;;
42884;SDS011;28534;48.100;11.584;2023-02-13T11:32:22;17.83;;;9.27;;
42884;SDS011;28534;48.100;11.584;2023-02-13T11:37:26;18.02;;;9.15;;
42884;SDS011;28534;48.100;11.584;2023-02-13T11:42:29;19.80;;;9.77;;
42884;SDS011;28534;48.100;11.584;2023-02-13T11:47:36;18.95;;;9.18;;
42884;SDS011;28534;48.100;11.584;2023-02-13T11:52:39;16.55;;;8.77;;
42884;SDS011;28534;48.100;11.584;2023-02-13T11:57:45;17.38;;;12.32;;
42884;SDS011;28534;48.100;11.584;2023-02-13T12:02:58;14.70;;;10.15;;
42884;SDS011;28534;48.100;11.584;2023-02-13T12:07:59;12.43;;;8.05;;
42884;SDS011;28534;48.100;11.584;2023-02-13T12:13:03;11.27;;;7.13;;
42884;SDS011;28534;48.100;11.584;2023-02-13T12:18:15;20.42;;;7.07;;
42884;SDS011;28534;48.100;11.584;2023-02-13T12:23:28;10.48;;;6.03;;
42884;SDS011;28534;48.100;11.584;2023-02-13T12:28:53;13.95;;;6.10;;
42884;SDS011;28534;48.100;11.584;2023-02-13T12:34:09;9.05;;;6.00;;
42884;SDS011;28534;48.100;11.584;2023-02-13T12:39:27;11.00;;;5.57;;
42884;SDS011;28534;48.100;11.584;2023-02-13T12:55:42;10.68;;;4.60;;
42884;SDS011;28534;48.100;11.584;2023-02-13T13:00:54;8.85;;;4.75;;
42884;SDS011;28534;48.100;11.584;2023-02-13T13:11:53;9.77;;;4.57;;
42884;SDS011;28534;48.100;11.584;2023-02-13T13:17:08;12.60;;;4.40;;
42884;SDS011;28534;48.100;11.584;2023-02-13T13:22:18;8.43;;;4.07;;
42884;SDS011;28534;48.100;11.584;2023-02-13T13:27:30;7.78;;;4.00;;
42884;SDS011;28534;48.100;11.584;2023-02-13T13:32:36;7.45;;;3.92;;
42884;SDS011;28534;48.100;11.584;2023-02-13T13:37:39;7.97;;;4.32;;
42884;SDS011;28534;48.100;11.584;2023-02-13T13:42:50;8.90;;;4.07;;
42884;SDS011;28534;48.100;11.584;2023-02-13T13:48:00;9.02;;;3.80;;
42884;SDS011;28534;48.100;11.584;2023-02-13T13:53:25;10.00;;;3.55;;
42884;SDS011;28534;48.100;11.584;2023-02-13T13:58:34;14.32;;;4.20;;
42884;SDS011;28534;48.100;11.584;2023-02-13T14:03:39;10.05;;;4.10;;
42884;SDS011;28534;48.100;11.584;2023-02-13T14:19:53;10.73;;;3.63;;
42884;SDS011;28534;48.100;11.584;2023-02-13T14:24:56;6.80;;;3.17;;
42884;SDS011;28534;48.100;11.584;2023-02-13T14:29:59;9.48;;;3.67;;
42884;SDS011;28534;48.100;11.584;2023-02-13T14:35:04;6.43;;;3.15;;
42884;SDS011;28534;48.100;11.584;2023-02-13T14:45:52;6.03;;;2.97;;
42884;SDS011;28534;48.100;11.584;2023-02-13T14:50:57;8.98;;;3.40;;
42884;SDS011;28534;48.100;11.584;2023-02-13T14:56:01;6.50;;;3.60;;
42884;SDS011;28534;48.100;11.584;2023-02-13T15:01:10;7.88;;;3.70;;
42884;SDS011;28534;48.100;11.584;2023-02-13T15:06:25;12.32;;;3.63;;
42884;SDS011;28534;48.100;11.584;2023-02-13T15:11:32;6.97;;;3.58;;
42884;SDS011;28534;48.100;11.584;2023-02-13T15:16:36;6.40;;;3.55;;
42884;SDS011;28534;48.100;11.584;2023-02-13T15:21:44;6.85;;;3.42;;
42884;SDS011;28534;48.100;11.584;2023-02-13T15:26:49;6.78;;;3.65;;
42884;SDS011;28534;48.100;11.584;2023-02-13T15:31:59;9.52;;;4.10;;
42884;SDS011;28534;48.100;11.584;2023-02-13T15:37:22;13.82;;;4.93;;
42884;SDS011;28534;48.100;11.584;2023-02-13T15:42:25;7.70;;;4.00;;
42884;SDS011;28534;48.100;11.584;2023-02-13T15:47:27;10.60;;;3.97;;
42884;SDS011;28534;48.100;11.584;2023-02-13T15:52:35;16.10;;;5.60;;
42884;SDS011;28534;48.100;11.584;2023-02-13T15:57:39;10.60;;;4.20;;
42884;SDS011;28534;48.100;11.584;2023-02-13T16:02:42;11.13;;;4.38;;
42884;SDS011;28534;48.100;11.584;2023-02-13T16:07:48;20.27;;;5.55;;
42884;SDS011;28534;48.100;11.584;2023-02-13T16:12:51;14.45;;;5.00;;
42884;SDS011;28534;48.100;11.584;2023-02-13T16:17:54;13.68;;;5.05;;
42884;SDS011;28534;48.100;11.584;2023-02-13T16:22:59;13.20;;;4.63;;
42884;SDS011;28534;48.100;11.584;2023-02-13T16:28:11;11.18;;;4.43;;
42884;SDS011;28534;48.100;11.584;2023-02-13T16:33:22;14.52;;;4.93;;
42884;SDS011;28534;48.100;11.584;2023-02-13T16:38:29;10.68;;;4.68;;
42884;SDS011;28534;48.100;11.584;2023-02-13T16:43:38;11.18;;;4.80;;
42884;SDS011;28534;48.100;11.584;2023-02-13T16:48:43;10.98;;;4.28;;
42884;SDS011;28534;48.100;11.584;2023-02-13T16:53:48;13.55;;;4.28;;
42884;SDS011;28534;48.100;11.584;2023-02-13T16:59:03;18.95;;;4.78;;
42884;SDS011;28534;48.100;11.584;2023-02-13T17:04:14;14.98;;;4.80;;
42884;SDS011;28534;48.100;11.584;2023-02-13T17:09:22;7.28;;;4.25;;
42884;SDS011;28534;48.100;11.584;2023-02-13T17:14:24;13.95;;;4.20;;
42884;SDS011;28534;48.100;11.584;2023-02-13T17:19:25;16.23;;;5.00;;
42884;SDS011;28534;48.100;11.584;2023-02-13T17:24:29;15.05;;;4.10;;
42884;SDS011;28534;48.100;11.584;2023-02-13T17:29:31;14.63;;;4.22;;
42884;SDS011;28534;48.100;11.584;2023-02-13T17:34:32;8.77;;;3.95;;
42884;SDS011;28534;48.100;11.584;2023-02-13T17:39:35;10.13;;;3.70;;
42884;SDS011;28534;48.100;11.584;2023-02-13T17:44:38;9.57;;;3.28;;
42884;SDS011;28534;48.100;11.584;2023-02-13T17:49:39;14.98;;;6.00;;
42884;SDS011;28534;48.100;11.584;2023-02-13T17:54:43;15.60;;;13.77;;
42884;SDS011;28534;48.100;11.584;2023-02-13T17:59:45;13.77;;;10.57;;
42884;SDS011;28534;48.100;11.584;2023-02-13T18:04:47;13.70;;;10.38;;
42884;SDS011;28534;48.100;11.584;2023-02-13T18:09:51;12.75;;;9.35;;
42884;SDS011;28534;48.100;11.584;2023-02-13T18:14:53;15.32;;;8.40;;
42884;SDS011;28534;48.100;11.584;2023-02-13T18:19:55;11.13;;;7.30;;
42884;SDS011;28534;48.100;11.584;2023-02-13T18:24:59;9.23;;;6.75;;
42884;SDS011;28534;48.100;11.584;2023-02-13T18:30:01;6.72;;;6.03;;
42884;SDS011;28534;48.100;11.584;2023-02-13T18:35:04;7.03;;;5.57;;
42884;SDS011;28534;48.100;11.584;2023-02-13T18:40:08;6.28;;;4.93;;
42884;SDS011;28534;48.100;11.584;2023-02-13T18:45:11;8.90;;;5.40;;
42884;SDS011;28534;48.100;11.584;2023-02-13T18:50:13;7.90;;;5.00;;
42884;SDS011;28534;48.100;11.584;2023-02-13T18:55:16;7.28;;;4.70;;
42884;SDS011;28534;48.100;11.584;2023-02-13T19:00:18;5.97;;;4.60;;
42884;SDS011;28534;48.100;11.584;2023-02-13T19:05:22;7.00;;;4.72;;
42884;SDS011;28534;48.100;11.584;2023-02-13T19:10:25;7.03;;;4.68;;
42884;SDS011;28534;48.100;11.584;2023-02-13T19:15:27;6.43;;;4.30;;
42884;SDS011;28534;48.100;11.584;2023-02-13T19:20:29;5.90;;;3.97;;
42884;SDS011;28534;48.100;11.584;2023-02-13T19:25:32;5.60;;;3.85;;
42884;SDS011;28534;48.100;11.584;2023-02-13T19:30:36;6.63;;;4.13;;
42884;SDS011;28534;48.100;11.584;2023-02-13T19:35:38;5.07;;;4.05;;
42884;SDS011;28534;48.100;11.584;2023-02-13T19:40:41;5.75;;;3.80;;
42884;SDS011;28534;48.100;11.584;2023-02-13T19:45:43;6.35;;;4.20;;
42884;SDS011;28534;48.100;11.584;2023-02-13T19:50:44;6.18;;;4.10;;
42884;SDS011;28534;48.100;11.584;2023-02-13T19:55:48;6.28;;;4.50;;
42884;SDS011;28534;48.100;11.584;2023-02-13T20:00:49;5.45;;;3.88;;
42884;SDS011;28534;48.100;11.584;2023-02-13T20:05:51;4.63;;;3.53;;
42884;SDS011;28534;48.100;11.584;2023-02-13T20:10:54;5.13;;;3.70;;
42884;SDS011;28534;48.100;11.584;2023-02-13T20:15:56;5.30;;;3.70;;
42884;SDS011;28534;48.100;11.584;2023-02-13T20:20:58;5.10;;;4.10;;
42884;SDS011;28534;48.100;11.584;2023-02-13T20:26:02;4.20;;;3.80;;
42884;SDS011;28534;48.100;11.584;2023-02-13T20:31:07;5.85;;;3.60;;
42884;SDS011;28534;48.100;11.584;2023-02-13T20:36:10;4.20;;;3.50;;
42884;SDS011;28534;48.100;11.584;2023-02-13T20:41:16;5.05;;;3.60;;
42884;SDS011;28534;48.100;11.584;2023-02-13T20:46:19;3.85;;;3.42;;
42884;SDS011;28534;48.100;11.584;2023-02-13T20:51:21;6.72;;;3.50;;
42884;SDS011;28534;48.100;11.584;2023-02-13T20:56:24;4.43;;;3.30;;
42884;SDS011;28534;48.100;11.584;2023-02-13T21:01:28;3.75;;;3.30;;
42884;SDS011;28534;48.100;11.584;2023-02-13T21:06:31;3.63;;;3.28;;
42884;SDS011;28534;48.100;11.584;2023-02-13T21:11:36;4.22;;;3.45;;
42884;SDS011;28534;48.100;11.584;2023-02-13T21:16:39;3.70;;;3.30;;
42884;SDS011;28534;48.100;11.584;2023-02-13T21:21:42;4.07;;;3.50;;
42884;SDS011;28534;48.100;11.584;2023-02-13T21:26:46;4.70;;;3.35;;
42884;SDS011;28534;48.100;11.584;2023-02-13T21:31:49;3.50;;;3.20;;
42884;SDS011;28534;48.100;11.584;2023-02-13T21:36:51;5.38;;;3.50;;
42884;SDS011;28534;48.100;11.584;2023-02-13T21:41:54;4.03;;;2.97;;
42884;SDS011;28534;48.100;11.584;2023-02-13T21:46:56;3.53;;;3.10;;
42884;SDS011;28534;48.100;11.584;2023-02-13T21:51:58;3.40;;;3.10;;
42884;SDS011;28534;48.100;11.584;2023-02-13T21:57:01;3.28;;;2.97;;
42884;SDS011;28534;48.100;11.584;2023-02-13T22:02:02;3.60;;;2.97;;
42884;SDS011;28534;48.100;11.584;2023-02-13T22:07:04;3.17;;;2.85;;
42884;SDS011;28534;48.100;11.584;2023-02-13T22:12:07;4.20;;;3.03;;
42884;SDS011;28534;48.100;11.584;2023-02-13T22:17:09;3.92;;;3.22;;
42884;SDS011;28534;48.100;11.584;2023-02-13T22:22:11;4.22;;;3.20;;
42884;SDS011;28534;48.100;11.584;2023-02-13T22:27:16;3.72;;;3.20;;
42884;SDS011;28534;48.100;11.584;2023-02-13T22:32:17;3.45;;;3.10;;
42884;SDS011;28534;48.100;11.584;2023-02-13T22:37:19;3.88;;;3.10;;
42884;SDS011;28534;48.100;11.584;2023-02-13T22:42:22;4.22;;;2.95;;
42884;SDS011;28534;48.100;11.584;2023-02-13T22:47:24;5.30;;;2.97;;
42884;SDS011;28534;48.100;11.584;2023-02-13T22:52:26;3.53;;;3.00;;
42884;SDS011;28534;48.100;11.584;2023-02-13T22:57:29;3.85;;;2.90;;
42884;SDS011;28534;48.100;11.584;2023-02-13T23:02:30;3.60;;;2.83;;
42884;SDS011;28534;48.100;11.584;2023-02-13T23:07:32;2.90;;;2.70;;
42884;SDS011;28534;48.100;11.584;2023-02-13T23:12:36;3.92;;;3.05;;
42884;SDS011;28534;48.100;11.584;2023-02-13T23:17:40;3.95;;;2.90;;
42884;SDS011;28534;48.100;11.584;2023-02-13T23:22:59;3.00;;;2.70;;
42884;SDS011;28534;48.100;11.584;2023-02-13T23:28:03;3.47;;;3.08;;
42884;SDS011;28534;48.100;11.584;2023-02-13T23:33:06;2.97;;;2.67;;
42884;SDS011;28534;48.100;11.584;2023-02-13T23:38:08;3.05;;;2.80;;
42884;SDS011;28534;48.100;11.584;2023-02-13T23:43:11;3.30;;;3.00;;
42884;SDS011;28534;48.100;11.584;2023-02-13T23:48:13;3.10;;;2.80;;
42884;SDS011;28534;48.100;11.584;2023-02-13T23:53:14;2.72;;;2.53;;
42884;SDS011;28534;48.100;11.584;2023-02-13T23:58:17;3.10;;;2.80;;
